sensor_id;sensor_type;location;lat;lon;timestamp;P1;durP1;ratioP1;P2;durP2;ratioP2
6376;SDS011;3221;48.858;10.128;2023-02-19T00:01:23;4.00;;;3.60;;
6376;SDS011;3221;48.858;10.128;2023-02-19T00:03:56;3.67;;;3.37;;
6376;SDS011;3221;48.858;10.128;2023-02-19T00:06:27;3.70;;;3.40;;
6376;SDS011;3221;48.858;10.128;2023-02-19T00:08:55;3.83;;;3.53;;
6376;SDS011;3221;48.858;10.128;2023-02-19T00:11:24;3.80;;;3.50;;
6376;SDS011;3221;48.858;10.128;2023-02-19T00:13:53;3.50;;;3.20;;
6376;SDS011;3221;48.858;10.128;2023-02-19T00:16:22;4.27;;;3.80;;
6376;SDS011;3221;48.858;10.128;2023-02-19T00:18:50;3.90;;;3.50;;
6376;SDS011;3221;48.858;10.128;2023-02-19T00:21:19;4.83;;;3.27;;
6376;SDS011;3221;48.858;10.128;2023-02-19T00:23:49;4.50;;;3.20;;
6376;SDS011;3221;48.858;10.128;2023-02-19T00:26:20;4.33;;;3.83;;
6376;SDS011;3221;48.858;10.128;2023-02-19T00:28:48;3.70;;;3.27;;
6376;SDS011;3221;48.858;10.128;2023-02-19T00:31:17;3.47;;;3.00;;
6376;SDS011;3221;48.858;10.128;2023-02-19T00:33:54;2.90;;;2.70;;
6376;SDS011;3221;48.858;10.128;2023-02-19T00:36:23;3.30;;;3.07;;
6376;SDS011;3221;48.858;10.128;2023-02-19T00:38:50;3.30;;;3.00;;
6376;SDS011;3221;48.858;10.128;2023-02-19T00:41:18;3.43;;;3.13;;
6376;SDS011;3221;48.858;10.128;2023-02-19T00:43:59;3.10;;;2.90;;
6376;SDS011;3221;48.858;10.128;2023-02-19T00:46:28;3.20;;;2.90;;
6376;SDS011;3221;48.858;10.128;2023-02-19T00:48:58;3.17;;;2.87;;
6376;SDS011;3221;48.858;10.128;2023-02-19T00:51:27;5.00;;;3.27;;
6376;SDS011;3221;48.858;10.128;2023-02-19T00:53:55;3.50;;;3.20;;
6376;SDS011;3221;48.858;10.128;2023-02-19T00:56:24;3.43;;;3.13;;
6376;SDS011;3221;48.858;10.128;2023-02-19T00:58:52;3.40;;;3.10;;
6376;SDS011;3221;48.858;10.128;2023-02-19T01:01:19;3.93;;;3.53;;
6376;SDS011;3221;48.858;10.128;2023-02-19T01:03:46;3.20;;;2.90;;
6376;SDS011;3221;48.858;10.128;2023-02-19T01:06:14;3.33;;;3.07;;
6376;SDS011;3221;48.858;10.128;2023-02-19T01:08:42;3.10;;;2.90;;
6376;SDS011;3221;48.858;10.128;2023-02-19T01:11:09;3.27;;;2.97;;
6376;SDS011;3221;48.858;10.128;2023-02-19T01:13:37;3.57;;;3.17;;
6376;SDS011;3221;48.858;10.128;2023-02-19T01:16:06;3.70;;;3.40;;
6376;SDS011;3221;48.858;10.128;2023-02-19T01:18:37;3.87;;;3.43;;
6376;SDS011;3221;48.858;10.128;2023-02-19T01:21:05;3.30;;;3.00;;
6376;SDS011;3221;48.858;10.128;2023-02-19T01:23:34;3.70;;;3.30;;
6376;SDS011;3221;48.858;10.128;2023-02-19T01:26:05;3.73;;;3.43;;
6376;SDS011;3221;48.858;10.128;2023-02-19T01:28:34;4.07;;;3.60;;
6376;SDS011;3221;48.858;10.128;2023-02-19T01:31:01;4.87;;;3.40;;
6376;SDS011;3221;48.858;10.128;2023-02-19T01:33:29;5.43;;;3.70;;
6376;SDS011;3221;48.858;10.128;2023-02-19T01:35:57;3.60;;;3.30;;
6376;SDS011;3221;48.858;10.128;2023-02-19T01:38:23;4.20;;;3.77;;
6376;SDS011;3221;48.858;10.128;2023-02-19T01:40:57;4.10;;;3.33;;
6376;SDS011;3221;48.858;10.128;2023-02-19T01:43:27;4.30;;;3.90;;
6376;SDS011;3221;48.858;10.128;2023-02-19T01:45:54;4.33;;;3.93;;
6376;SDS011;3221;48.858;10.128;2023-02-19T01:48:22;4.57;;;4.07;;
6376;SDS011;3221;48.858;10.128;2023-02-19T01:51:12;4.90;;;4.43;;
6376;SDS011;3221;48.858;10.128;2023-02-19T01:53:42;6.50;;;4.33;;
6376;SDS011;3221;48.858;10.128;2023-02-19T01:56:12;5.10;;;4.60;;
6376;SDS011;3221;48.858;10.128;2023-02-19T01:58:41;4.97;;;4.40;;
6376;SDS011;3221;48.858;10.128;2023-02-19T02:01:08;5.90;;;4.67;;
6376;SDS011;3221;48.858;10.128;2023-02-19T02:03:36;5.93;;;5.33;;
6376;SDS011;3221;48.858;10.128;2023-02-19T02:08:34;6.63;;;5.10;;
6376;SDS011;3221;48.858;10.128;2023-02-19T02:11:21;5.50;;;5.00;;
6376;SDS011;3221;48.858;10.128;2023-02-19T02:13:48;5.77;;;4.80;;
6376;SDS011;3221;48.858;10.128;2023-02-19T02:32:55;5.57;;;4.13;;
6376;SDS011;3221;48.858;10.128;2023-02-19T02:35:50;4.93;;;3.90;;
6376;SDS011;3221;48.858;10.128;2023-02-19T02:38:23;5.57;;;3.90;;
6376;SDS011;3221;48.858;10.128;2023-02-19T02:40:53;5.10;;;3.97;;
6376;SDS011;3221;48.858;10.128;2023-02-19T02:43:21;4.20;;;3.60;;
6376;SDS011;3221;48.858;10.128;2023-02-19T02:45:49;4.47;;;4.07;;
6376;SDS011;3221;48.858;10.128;2023-02-19T02:51:20;5.23;;;4.47;;
6376;SDS011;3221;48.858;10.128;2023-02-19T02:54:09;5.40;;;3.80;;
6376;SDS011;3221;48.858;10.128;2023-02-19T02:56:58;5.83;;;3.70;;
6376;SDS011;3221;48.858;10.128;2023-02-19T02:59:31;4.13;;;3.73;;
6376;SDS011;3221;48.858;10.128;2023-02-19T03:02:13;6.33;;;3.60;;
6376;SDS011;3221;48.858;10.128;2023-02-19T03:04:49;5.23;;;3.97;;
6376;SDS011;3221;48.858;10.128;2023-02-19T03:10:23;3.93;;;3.63;;
6376;SDS011;3221;48.858;10.128;2023-02-19T03:12:55;4.40;;;3.70;;
6376;SDS011;3221;48.858;10.128;2023-02-19T03:15:45;4.17;;;3.77;;
6376;SDS011;3221;48.858;10.128;2023-02-19T03:18:34;4.80;;;3.40;;
6376;SDS011;3221;48.858;10.128;2023-02-19T03:21:22;3.97;;;3.43;;
6376;SDS011;3221;48.858;10.128;2023-02-19T03:23:52;4.30;;;3.90;;
6376;SDS011;3221;48.858;10.128;2023-02-19T03:26:39;4.23;;;3.57;;
6376;SDS011;3221;48.858;10.128;2023-02-19T03:29:08;4.60;;;3.80;;
6376;SDS011;3221;48.858;10.128;2023-02-19T03:31:52;4.07;;;3.60;;
6376;SDS011;3221;48.858;10.128;2023-02-19T03:34:36;4.27;;;3.77;;
6376;SDS011;3221;48.858;10.128;2023-02-19T03:37:17;4.20;;;3.80;;
6376;SDS011;3221;48.858;10.128;2023-02-19T03:39:51;3.90;;;3.60;;
6376;SDS011;3221;48.858;10.128;2023-02-19T03:47:43;3.33;;;3.10;;
6376;SDS011;3221;48.858;10.128;2023-02-19T03:50:30;3.40;;;3.10;;
6376;SDS011;3221;48.858;10.128;2023-02-19T03:59:15;3.53;;;3.17;;
6376;SDS011;3221;48.858;10.128;2023-02-19T04:01:49;4.20;;;3.60;;
6376;SDS011;3221;48.858;10.128;2023-02-19T04:04:21;3.40;;;3.10;;
6376;SDS011;3221;48.858;10.128;2023-02-19T04:06:53;3.70;;;3.27;;
6376;SDS011;3221;48.858;10.128;2023-02-19T04:09:24;3.70;;;3.40;;
6376;SDS011;3221;48.858;10.128;2023-02-19T04:12:02;3.50;;;3.20;;
6376;SDS011;3221;48.858;10.128;2023-02-19T04:14:43;3.93;;;3.50;;
6376;SDS011;3221;48.858;10.128;2023-02-19T04:17:22;4.80;;;3.73;;
6376;SDS011;3221;48.858;10.128;2023-02-19T04:19:52;5.23;;;4.27;;
6376;SDS011;3221;48.858;10.128;2023-02-19T04:22:21;6.97;;;5.20;;
6376;SDS011;3221;48.858;10.128;2023-02-19T04:24:49;5.87;;;4.63;;
6376;SDS011;3221;48.858;10.128;2023-02-19T04:27:18;4.97;;;4.17;;
6376;SDS011;3221;48.858;10.128;2023-02-19T04:29:45;5.20;;;4.10;;
6376;SDS011;3221;48.858;10.128;2023-02-19T04:32:12;4.67;;;4.27;;
6376;SDS011;3221;48.858;10.128;2023-02-19T04:34:39;4.17;;;3.63;;
6376;SDS011;3221;48.858;10.128;2023-02-19T04:37:06;5.57;;;4.93;;
6376;SDS011;3221;48.858;10.128;2023-02-19T04:39:33;4.30;;;3.90;;
6376;SDS011;3221;48.858;10.128;2023-02-19T04:42:00;3.77;;;3.47;;
6376;SDS011;3221;48.858;10.128;2023-02-19T04:44:28;3.77;;;3.47;;
6376;SDS011;3221;48.858;10.128;2023-02-19T04:46:55;3.53;;;3.23;;
6376;SDS011;3221;48.858;10.128;2023-02-19T04:49:21;2.97;;;2.60;;
6376;SDS011;3221;48.858;10.128;2023-02-19T04:51:48;2.57;;;2.37;;
6376;SDS011;3221;48.858;10.128;2023-02-19T04:54:15;3.27;;;2.30;;
6376;SDS011;3221;48.858;10.128;2023-02-19T04:56:42;3.77;;;1.93;;
6376;SDS011;3221;48.858;10.128;2023-02-19T04:59:08;2.00;;;1.90;;
6376;SDS011;3221;48.858;10.128;2023-02-19T05:01:35;1.70;;;1.60;;
6376;SDS011;3221;48.858;10.128;2023-02-19T05:04:02;2.80;;;2.30;;
6376;SDS011;3221;48.858;10.128;2023-02-19T05:06:30;2.73;;;2.30;;
6376;SDS011;3221;48.858;10.128;2023-02-19T05:08:56;4.70;;;2.77;;
6376;SDS011;3221;48.858;10.128;2023-02-19T05:11:23;3.40;;;2.37;;
6376;SDS011;3221;48.858;10.128;2023-02-19T05:13:50;2.40;;;2.20;;
6376;SDS011;3221;48.858;10.128;2023-02-19T05:16:17;2.57;;;2.00;;
6376;SDS011;3221;48.858;10.128;2023-02-19T05:18:44;3.97;;;3.13;;
6376;SDS011;3221;48.858;10.128;2023-02-19T05:21:12;1.77;;;1.60;;
6376;SDS011;3221;48.858;10.128;2023-02-19T05:23:40;2.90;;;2.40;;
6376;SDS011;3221;48.858;10.128;2023-02-19T05:26:09;2.30;;;2.00;;
6376;SDS011;3221;48.858;10.128;2023-02-19T05:28:38;2.90;;;2.00;;
6376;SDS011;3221;48.858;10.128;2023-02-19T05:31:06;1.87;;;1.70;;
6376;SDS011;3221;48.858;10.128;2023-02-19T05:33:34;2.53;;;2.17;;
6376;SDS011;3221;48.858;10.128;2023-02-19T05:36:09;2.60;;;2.10;;
6376;SDS011;3221;48.858;10.128;2023-02-19T05:38:38;3.47;;;2.53;;
6376;SDS011;3221;48.858;10.128;2023-02-19T05:41:13;5.27;;;3.73;;
6376;SDS011;3221;48.858;10.128;2023-02-19T05:43:41;1.40;;;1.30;;
6376;SDS011;3221;48.858;10.128;2023-02-19T05:46:11;1.73;;;1.57;;
6376;SDS011;3221;48.858;10.128;2023-02-19T05:48:39;2.50;;;2.20;;
6376;SDS011;3221;48.858;10.128;2023-02-19T05:51:07;2.60;;;2.40;;
6376;SDS011;3221;48.858;10.128;2023-02-19T05:53:38;4.13;;;3.73;;
6376;SDS011;3221;48.858;10.128;2023-02-19T05:56:16;2.80;;;2.60;;
6376;SDS011;3221;48.858;10.128;2023-02-19T05:58:53;2.60;;;2.40;;
6376;SDS011;3221;48.858;10.128;2023-02-19T06:01:21;1.60;;;1.50;;
6376;SDS011;3221;48.858;10.128;2023-02-19T06:03:49;1.40;;;1.30;;
6376;SDS011;3221;48.858;10.128;2023-02-19T06:06:17;2.23;;;1.20;;
6376;SDS011;3221;48.858;10.128;2023-02-19T06:08:45;1.53;;;1.43;;
6376;SDS011;3221;48.858;10.128;2023-02-19T06:11:14;1.60;;;1.50;;
6376;SDS011;3221;48.858;10.128;2023-02-19T06:13:42;1.70;;;1.60;;
6376;SDS011;3221;48.858;10.128;2023-02-19T06:16:11;1.60;;;1.47;;
6376;SDS011;3221;48.858;10.128;2023-02-19T06:18:38;1.77;;;1.67;;
6376;SDS011;3221;48.858;10.128;2023-02-19T06:21:07;1.50;;;1.40;;
6376;SDS011;3221;48.858;10.128;2023-02-19T06:23:36;1.53;;;1.43;;
6376;SDS011;3221;48.858;10.128;2023-02-19T06:26:17;2.10;;;1.93;;
6376;SDS011;3221;48.858;10.128;2023-02-19T06:28:46;3.10;;;1.90;;
6376;SDS011;3221;48.858;10.128;2023-02-19T06:31:15;2.30;;;1.80;;
6376;SDS011;3221;48.858;10.128;2023-02-19T06:33:43;2.30;;;2.10;;
6376;SDS011;3221;48.858;10.128;2023-02-19T06:36:11;2.70;;;2.50;;
6376;SDS011;3221;48.858;10.128;2023-02-19T06:38:44;2.53;;;2.33;;
6376;SDS011;3221;48.858;10.128;2023-02-19T06:41:11;2.90;;;2.30;;
6376;SDS011;3221;48.858;10.128;2023-02-19T06:43:38;2.13;;;2.00;;
6376;SDS011;3221;48.858;10.128;2023-02-19T06:46:06;2.10;;;1.90;;
6376;SDS011;3221;48.858;10.128;2023-02-19T06:48:33;2.00;;;1.80;;
6376;SDS011;3221;48.858;10.128;2023-02-19T06:51:02;1.70;;;1.60;;
6376;SDS011;3221;48.858;10.128;2023-02-19T06:53:29;1.80;;;1.70;;
6376;SDS011;3221;48.858;10.128;2023-02-19T06:56:06;1.83;;;1.70;;
6376;SDS011;3221;48.858;10.128;2023-02-19T06:58:47;1.73;;;1.63;;
6376;SDS011;3221;48.858;10.128;2023-02-19T07:01:14;1.90;;;1.80;;
6376;SDS011;3221;48.858;10.128;2023-02-19T07:03:41;3.63;;;1.70;;
6376;SDS011;3221;48.858;10.128;2023-02-19T07:06:08;1.50;;;1.40;;
6376;SDS011;3221;48.858;10.128;2023-02-19T07:08:35;1.43;;;1.33;;
6376;SDS011;3221;48.858;10.128;2023-02-19T07:11:02;1.50;;;1.40;;
6376;SDS011;3221;48.858;10.128;2023-02-19T07:13:29;1.40;;;1.30;;
6376;SDS011;3221;48.858;10.128;2023-02-19T07:15:57;1.40;;;1.30;;
6376;SDS011;3221;48.858;10.128;2023-02-19T07:18:25;1.70;;;1.60;;
6376;SDS011;3221;48.858;10.128;2023-02-19T07:20:52;1.73;;;1.63;;
6376;SDS011;3221;48.858;10.128;2023-02-19T07:23:19;2.27;;;2.07;;
6376;SDS011;3221;48.858;10.128;2023-02-19T07:25:46;1.90;;;1.80;;
6376;SDS011;3221;48.858;10.128;2023-02-19T07:28:13;2.93;;;2.17;;
6376;SDS011;3221;48.858;10.128;2023-02-19T07:30:41;5.70;;;3.50;;
6376;SDS011;3221;48.858;10.128;2023-02-19T07:33:09;8.87;;;4.90;;
6376;SDS011;3221;48.858;10.128;2023-02-19T07:35:36;8.00;;;4.93;;
6376;SDS011;3221;48.858;10.128;2023-02-19T07:38:03;8.73;;;5.17;;
6376;SDS011;3221;48.858;10.128;2023-02-19T07:40:29;7.23;;;4.47;;
6376;SDS011;3221;48.858;10.128;2023-02-19T07:42:57;5.63;;;4.00;;
6376;SDS011;3221;48.858;10.128;2023-02-19T07:45:25;4.13;;;3.37;;
6376;SDS011;3221;48.858;10.128;2023-02-19T07:47:52;3.60;;;2.50;;
6376;SDS011;3221;48.858;10.128;2023-02-19T07:50:18;5.17;;;3.63;;
6376;SDS011;3221;48.858;10.128;2023-02-19T07:52:45;4.87;;;3.17;;
6376;SDS011;3221;48.858;10.128;2023-02-19T07:55:12;3.93;;;2.50;;
6376;SDS011;3221;48.858;10.128;2023-02-19T07:57:39;3.73;;;2.33;;
6376;SDS011;3221;48.858;10.128;2023-02-19T08:00:05;3.30;;;2.70;;
6376;SDS011;3221;48.858;10.128;2023-02-19T08:02:37;2.80;;;2.00;;
6376;SDS011;3221;48.858;10.128;2023-02-19T08:05:22;2.80;;;1.80;;
6376;SDS011;3221;48.858;10.128;2023-02-19T08:07:49;1.80;;;1.70;;
6376;SDS011;3221;48.858;10.128;2023-02-19T08:10:19;2.87;;;1.70;;
6376;SDS011;3221;48.858;10.128;2023-02-19T08:13:04;1.70;;;1.60;;
6376;SDS011;3221;48.858;10.128;2023-02-19T08:16:08;2.00;;;1.90;;
6376;SDS011;3221;48.858;10.128;2023-02-19T08:18:47;1.70;;;1.60;;
6376;SDS011;3221;48.858;10.128;2023-02-19T08:21:14;2.30;;;2.10;;
6376;SDS011;3221;48.858;10.128;2023-02-19T08:23:43;2.10;;;1.90;;
6376;SDS011;3221;48.858;10.128;2023-02-19T08:26:11;2.27;;;1.83;;
6376;SDS011;3221;48.858;10.128;2023-02-19T08:28:38;2.80;;;2.50;;
6376;SDS011;3221;48.858;10.128;2023-02-19T08:31:06;5.77;;;3.77;;
6376;SDS011;3221;48.858;10.128;2023-02-19T08:33:34;5.63;;;3.73;;
6376;SDS011;3221;48.858;10.128;2023-02-19T08:36:02;3.10;;;2.53;;
6376;SDS011;3221;48.858;10.128;2023-02-19T08:38:31;5.13;;;3.40;;
6376;SDS011;3221;48.858;10.128;2023-02-19T08:41:04;5.67;;;2.93;;
6376;SDS011;3221;48.858;10.128;2023-02-19T08:43:40;4.80;;;3.10;;
6376;SDS011;3221;48.858;10.128;2023-02-19T08:46:10;9.23;;;5.07;;
6376;SDS011;3221;48.858;10.128;2023-02-19T08:48:38;5.70;;;4.00;;
6376;SDS011;3221;48.858;10.128;2023-02-19T08:51:06;7.27;;;4.53;;
6376;SDS011;3221;48.858;10.128;2023-02-19T08:53:36;6.67;;;3.87;;
6376;SDS011;3221;48.858;10.128;2023-02-19T08:56:05;6.87;;;4.33;;
6376;SDS011;3221;48.858;10.128;2023-02-19T08:58:34;6.73;;;3.90;;
6376;SDS011;3221;48.858;10.128;2023-02-19T09:01:05;5.67;;;4.07;;
6376;SDS011;3221;48.858;10.128;2023-02-19T09:03:34;4.27;;;3.40;;
6376;SDS011;3221;48.858;10.128;2023-02-19T09:06:01;5.43;;;3.37;;
6376;SDS011;3221;48.858;10.128;2023-02-19T09:08:28;6.47;;;4.00;;
6376;SDS011;3221;48.858;10.128;2023-02-19T09:10:56;5.37;;;3.70;;
6376;SDS011;3221;48.858;10.128;2023-02-19T09:13:23;4.13;;;3.03;;
6376;SDS011;3221;48.858;10.128;2023-02-19T09:15:52;4.10;;;3.17;;
6376;SDS011;3221;48.858;10.128;2023-02-19T09:18:19;3.83;;;3.10;;
6376;SDS011;3221;48.858;10.128;2023-02-19T09:20:46;3.47;;;3.00;;
6376;SDS011;3221;48.858;10.128;2023-02-19T09:23:13;2.93;;;2.50;;
6376;SDS011;3221;48.858;10.128;2023-02-19T09:25:39;4.97;;;2.57;;
6376;SDS011;3221;48.858;10.128;2023-02-19T09:28:06;3.40;;;2.77;;
6376;SDS011;3221;48.858;10.128;2023-02-19T09:30:33;2.80;;;2.53;;
6376;SDS011;3221;48.858;10.128;2023-02-19T09:33:00;2.57;;;2.07;;
6376;SDS011;3221;48.858;10.128;2023-02-19T09:35:26;2.40;;;2.20;;
6376;SDS011;3221;48.858;10.128;2023-02-19T09:37:53;3.50;;;2.30;;
6376;SDS011;3221;48.858;10.128;2023-02-19T09:40:20;2.20;;;2.00;;
6376;SDS011;3221;48.858;10.128;2023-02-19T09:42:48;3.60;;;2.30;;
6376;SDS011;3221;48.858;10.128;2023-02-19T09:45:18;2.47;;;2.03;;
6376;SDS011;3221;48.858;10.128;2023-02-19T09:47:48;2.47;;;2.00;;
6376;SDS011;3221;48.858;10.128;2023-02-19T09:50:19;3.50;;;2.37;;
6376;SDS011;3221;48.858;10.128;2023-02-19T09:52:50;3.03;;;2.10;;
6376;SDS011;3221;48.858;10.128;2023-02-19T09:55:24;2.27;;;2.07;;
6376;SDS011;3221;48.858;10.128;2023-02-19T09:58:02;3.23;;;2.30;;
6376;SDS011;3221;48.858;10.128;2023-02-19T10:00:39;2.23;;;2.03;;
6376;SDS011;3221;48.858;10.128;2023-02-19T10:03:08;2.73;;;1.90;;
6376;SDS011;3221;48.858;10.128;2023-02-19T10:05:39;2.30;;;2.10;;
6376;SDS011;3221;48.858;10.128;2023-02-19T10:08:08;2.90;;;2.10;;
6376;SDS011;3221;48.858;10.128;2023-02-19T10:10:40;2.57;;;2.13;;
6376;SDS011;3221;48.858;10.128;2023-02-19T10:13:23;3.23;;;1.90;;
6376;SDS011;3221;48.858;10.128;2023-02-19T10:15:56;2.70;;;1.90;;
6376;SDS011;3221;48.858;10.128;2023-02-19T10:18:25;2.30;;;2.10;;
6376;SDS011;3221;48.858;10.128;2023-02-19T10:20:54;2.30;;;2.10;;
6376;SDS011;3221;48.858;10.128;2023-02-19T10:23:22;2.93;;;1.70;;
6376;SDS011;3221;48.858;10.128;2023-02-19T10:25:55;4.13;;;1.83;;
6376;SDS011;3221;48.858;10.128;2023-02-19T10:28:28;2.27;;;2.07;;
6376;SDS011;3221;48.858;10.128;2023-02-19T10:30:57;2.77;;;2.00;;
6376;SDS011;3221;48.858;10.128;2023-02-19T10:33:25;3.67;;;2.30;;
6376;SDS011;3221;48.858;10.128;2023-02-19T10:41:15;2.77;;;1.80;;
6376;SDS011;3221;48.858;10.128;2023-02-19T10:43:51;3.53;;;2.60;;
6376;SDS011;3221;48.858;10.128;2023-02-19T10:46:28;3.60;;;2.03;;
6376;SDS011;3221;48.858;10.128;2023-02-19T10:49:06;3.63;;;1.73;;
6376;SDS011;3221;48.858;10.128;2023-02-19T10:51:48;2.93;;;1.93;;
6376;SDS011;3221;48.858;10.128;2023-02-19T10:55:23;2.60;;;2.00;;
6376;SDS011;3221;48.858;10.128;2023-02-19T10:57:36;3.07;;;1.80;;
6376;SDS011;3221;48.858;10.128;2023-02-19T11:03:17;1.80;;;1.53;;
6376;SDS011;3221;48.858;10.128;2023-02-19T11:05:53;2.30;;;2.00;;
6376;SDS011;3221;48.858;10.128;2023-02-19T11:08:28;4.47;;;2.00;;
6376;SDS011;3221;48.858;10.128;2023-02-19T11:10:56;3.63;;;1.90;;
6376;SDS011;3221;48.858;10.128;2023-02-19T11:13:29;3.77;;;2.07;;
6376;SDS011;3221;48.858;10.128;2023-02-19T11:15:58;2.40;;;1.87;;
6376;SDS011;3221;48.858;10.128;2023-02-19T11:18:31;3.03;;;2.30;;
6376;SDS011;3221;48.858;10.128;2023-02-19T11:21:02;3.33;;;2.03;;
6376;SDS011;3221;48.858;10.128;2023-02-19T11:23:31;4.67;;;2.33;;
6376;SDS011;3221;48.858;10.128;2023-02-19T11:26:05;4.57;;;3.10;;
6376;SDS011;3221;48.858;10.128;2023-02-19T11:28:40;5.73;;;2.67;;
6376;SDS011;3221;48.858;10.128;2023-02-19T11:33:50;10.10;;;5.30;;
6376;SDS011;3221;48.858;10.128;2023-02-19T11:36:23;11.63;;;5.60;;
6376;SDS011;3221;48.858;10.128;2023-02-19T11:38:56;11.40;;;6.13;;
6376;SDS011;3221;48.858;10.128;2023-02-19T11:41:29;12.57;;;6.70;;
6376;SDS011;3221;48.858;10.128;2023-02-19T12:00:43;9.20;;;5.70;;
6376;SDS011;3221;48.858;10.128;2023-02-19T12:06:15;6.50;;;4.00;;
6376;SDS011;3221;48.858;10.128;2023-02-19T12:08:58;8.67;;;5.10;;
6376;SDS011;3221;48.858;10.128;2023-02-19T12:12:13;8.13;;;5.10;;
6376;SDS011;3221;48.858;10.128;2023-02-19T12:17:49;4.20;;;3.13;;
6376;SDS011;3221;48.858;10.128;2023-02-19T12:26:21;4.60;;;2.70;;
6376;SDS011;3221;48.858;10.128;2023-02-19T12:39:38;2.73;;;2.20;;
6376;SDS011;3221;48.858;10.128;2023-02-19T12:45:20;2.60;;;2.20;;
6376;SDS011;3221;48.858;10.128;2023-02-19T12:48:05;2.20;;;2.00;;
6376;SDS011;3221;48.858;10.128;2023-02-19T12:50:34;3.73;;;1.90;;
6376;SDS011;3221;48.858;10.128;2023-02-19T12:53:05;2.50;;;1.90;;
6376;SDS011;3221;48.858;10.128;2023-02-19T12:55:54;3.00;;;1.93;;
6376;SDS011;3221;48.858;10.128;2023-02-19T12:58:25;4.67;;;2.20;;
6376;SDS011;3221;48.858;10.128;2023-02-19T13:01:06;4.80;;;2.70;;
6376;SDS011;3221;48.858;10.128;2023-02-19T13:06:35;5.43;;;3.93;;
6376;SDS011;3221;48.858;10.128;2023-02-19T13:09:14;7.57;;;3.60;;
6376;SDS011;3221;48.858;10.128;2023-02-19T13:11:47;3.77;;;2.43;;
6376;SDS011;3221;48.858;10.128;2023-02-19T13:14:28;6.00;;;3.47;;
6376;SDS011;3221;48.858;10.128;2023-02-19T13:17:05;4.60;;;2.90;;
6376;SDS011;3221;48.858;10.128;2023-02-19T13:19:43;3.63;;;2.70;;
6376;SDS011;3221;48.858;10.128;2023-02-19T13:22:18;4.53;;;2.60;;
6376;SDS011;3221;48.858;10.128;2023-02-19T13:25:15;3.30;;;2.33;;
6376;SDS011;3221;48.858;10.128;2023-02-19T13:27:48;5.43;;;2.63;;
6376;SDS011;3221;48.858;10.128;2023-02-19T13:30:31;4.13;;;2.77;;
6376;SDS011;3221;48.858;10.128;2023-02-19T13:33:24;6.67;;;2.90;;
6376;SDS011;3221;48.858;10.128;2023-02-19T13:36:09;5.30;;;2.87;;
6376;SDS011;3221;48.858;10.128;2023-02-19T13:38:43;5.80;;;3.10;;
6376;SDS011;3221;48.858;10.128;2023-02-19T13:41:26;5.60;;;3.03;;
6376;SDS011;3221;48.858;10.128;2023-02-19T13:43:57;6.13;;;3.40;;
6376;SDS011;3221;48.858;10.128;2023-02-19T13:46:33;4.77;;;3.30;;
6376;SDS011;3221;48.858;10.128;2023-02-19T13:54:30;5.83;;;3.57;;
6376;SDS011;3221;48.858;10.128;2023-02-19T13:59:52;4.70;;;3.07;;
6376;SDS011;3221;48.858;10.128;2023-02-19T14:09:44;4.03;;;2.87;;
6376;SDS011;3221;48.858;10.128;2023-02-19T14:14:51;4.40;;;2.80;;
6376;SDS011;3221;48.858;10.128;2023-02-19T14:20:02;4.13;;;3.00;;
6376;SDS011;3221;48.858;10.128;2023-02-19T14:28:05;4.80;;;3.17;;
6376;SDS011;3221;48.858;10.128;2023-02-19T14:33:24;6.47;;;3.20;;
6376;SDS011;3221;48.858;10.128;2023-02-19T14:35:54;5.03;;;3.37;;
6376;SDS011;3221;48.858;10.128;2023-02-19T14:38:27;7.30;;;3.37;;
6376;SDS011;3221;48.858;10.128;2023-02-19T14:40:58;6.83;;;3.43;;
6376;SDS011;3221;48.858;10.128;2023-02-19T14:43:25;4.73;;;3.10;;
6376;SDS011;3221;48.858;10.128;2023-02-19T14:45:55;5.30;;;2.93;;
6376;SDS011;3221;48.858;10.128;2023-02-19T14:48:32;5.73;;;3.30;;
6376;SDS011;3221;48.858;10.128;2023-02-19T14:51:05;4.07;;;3.00;;
6376;SDS011;3221;48.858;10.128;2023-02-19T14:53:36;5.13;;;3.00;;
6376;SDS011;3221;48.858;10.128;2023-02-19T14:56:14;4.97;;;3.07;;
6376;SDS011;3221;48.858;10.128;2023-02-19T15:02:40;6.03;;;3.27;;
6376;SDS011;3221;48.858;10.128;2023-02-19T15:04:42;5.07;;;3.50;;
6376;SDS011;3221;48.858;10.128;2023-02-19T15:07:12;4.67;;;3.13;;
6376;SDS011;3221;48.858;10.128;2023-02-19T15:09:47;5.50;;;2.60;;
6376;SDS011;3221;48.858;10.128;2023-02-19T15:12:20;4.73;;;2.80;;
6376;SDS011;3221;48.858;10.128;2023-02-19T15:14:50;4.80;;;3.13;;
6376;SDS011;3221;48.858;10.128;2023-02-19T15:17:38;3.70;;;3.03;;
6376;SDS011;3221;48.858;10.128;2023-02-19T15:20:11;6.23;;;3.07;;
6376;SDS011;3221;48.858;10.128;2023-02-19T15:22:43;5.47;;;3.07;;
6376;SDS011;3221;48.858;10.128;2023-02-19T15:25:18;4.53;;;2.80;;
6376;SDS011;3221;48.858;10.128;2023-02-19T15:27:47;7.60;;;3.73;;
6376;SDS011;3221;48.858;10.128;2023-02-19T15:30:24;6.80;;;3.50;;
6376;SDS011;3221;48.858;10.128;2023-02-19T15:32:54;4.47;;;3.20;;
6376;SDS011;3221;48.858;10.128;2023-02-19T15:35:23;4.97;;;2.70;;
6376;SDS011;3221;48.858;10.128;2023-02-19T15:37:52;5.43;;;2.83;;
6376;SDS011;3221;48.858;10.128;2023-02-19T15:40:23;5.23;;;3.30;;
6376;SDS011;3221;48.858;10.128;2023-02-19T15:42:53;5.53;;;3.50;;
6376;SDS011;3221;48.858;10.128;2023-02-19T15:45:22;5.13;;;3.30;;
6376;SDS011;3221;48.858;10.128;2023-02-19T15:48:03;4.53;;;2.80;;
6376;SDS011;3221;48.858;10.128;2023-02-19T15:50:39;5.40;;;2.40;;
6376;SDS011;3221;48.858;10.128;2023-02-19T15:53:15;2.70;;;2.50;;
6376;SDS011;3221;48.858;10.128;2023-02-19T16:01:01;4.37;;;2.30;;
6376;SDS011;3221;48.858;10.128;2023-02-19T16:03:44;4.57;;;2.50;;
6376;SDS011;3221;48.858;10.128;2023-02-19T16:06:12;2.80;;;2.40;;
6376;SDS011;3221;48.858;10.128;2023-02-19T16:08:42;5.03;;;2.33;;
6376;SDS011;3221;48.858;10.128;2023-02-19T16:13:48;3.57;;;2.60;;
6376;SDS011;3221;48.858;10.128;2023-02-19T16:18:50;4.57;;;2.77;;
6376;SDS011;3221;48.858;10.128;2023-02-19T16:21:23;7.17;;;3.77;;
6376;SDS011;3221;48.858;10.128;2023-02-19T16:23:54;6.87;;;3.20;;
6376;SDS011;3221;48.858;10.128;2023-02-19T16:26:38;4.77;;;2.83;;
6376;SDS011;3221;48.858;10.128;2023-02-19T16:29:11;4.73;;;2.70;;
6376;SDS011;3221;48.858;10.128;2023-02-19T16:31:48;3.97;;;2.33;;
6376;SDS011;3221;48.858;10.128;2023-02-19T16:34:17;2.87;;;2.57;;
6376;SDS011;3221;48.858;10.128;2023-02-19T16:45:29;11.37;;;6.23;;
6376;SDS011;3221;48.858;10.128;2023-02-19T16:47:56;12.90;;;7.70;;
6376;SDS011;3221;48.858;10.128;2023-02-19T16:50:23;12.70;;;5.63;;
6376;SDS011;3221;48.858;10.128;2023-02-19T16:52:52;8.50;;;5.10;;
6376;SDS011;3221;48.858;10.128;2023-02-19T16:55:20;9.00;;;5.47;;
6376;SDS011;3221;48.858;10.128;2023-02-19T16:57:48;7.77;;;5.80;;
6376;SDS011;3221;48.858;10.128;2023-02-19T17:00:26;11.57;;;8.27;;
6376;SDS011;3221;48.858;10.128;2023-02-19T17:02:56;10.07;;;8.40;;
6376;SDS011;3221;48.858;10.128;2023-02-19T17:05:27;8.67;;;6.80;;
6376;SDS011;3221;48.858;10.128;2023-02-19T17:07:55;8.53;;;6.20;;
6376;SDS011;3221;48.858;10.128;2023-02-19T17:10:24;6.80;;;4.93;;
6376;SDS011;3221;48.858;10.128;2023-02-19T17:12:53;6.40;;;4.90;;
6376;SDS011;3221;48.858;10.128;2023-02-19T17:15:21;9.77;;;5.57;;
6376;SDS011;3221;48.858;10.128;2023-02-19T17:17:48;5.90;;;4.87;;
6376;SDS011;3221;48.858;10.128;2023-02-19T17:22:41;5.97;;;3.97;;
6376;SDS011;3221;48.858;10.128;2023-02-19T17:25:09;7.10;;;4.53;;
6376;SDS011;3221;48.858;10.128;2023-02-19T17:27:36;6.20;;;3.43;;
6376;SDS011;3221;48.858;10.128;2023-02-19T17:30:04;6.43;;;3.93;;
6376;SDS011;3221;48.858;10.128;2023-02-19T17:32:40;5.67;;;3.43;;
6376;SDS011;3221;48.858;10.128;2023-02-19T17:35:07;5.70;;;3.90;;
6376;SDS011;3221;48.858;10.128;2023-02-19T17:37:34;5.03;;;3.67;;
6376;SDS011;3221;48.858;10.128;2023-02-19T17:40:01;7.90;;;3.90;;
6376;SDS011;3221;48.858;10.128;2023-02-19T17:42:28;7.50;;;4.13;;
6376;SDS011;3221;48.858;10.128;2023-02-19T17:44:55;5.40;;;3.97;;
6376;SDS011;3221;48.858;10.128;2023-02-19T17:47:22;7.57;;;4.23;;
6376;SDS011;3221;48.858;10.128;2023-02-19T17:49:48;10.50;;;5.17;;
6376;SDS011;3221;48.858;10.128;2023-02-19T17:52:15;8.27;;;5.30;;
6376;SDS011;3221;48.858;10.128;2023-02-19T17:54:44;9.03;;;6.40;;